LEST/SCQ METAR and TAF weather

Enter ICAO airport designator
Station Type Date Time Source
LEST METAR 2019/06/27 08:00 UTC NOAA

LEST 270800Z VRB01KT 9999 FEW012 SCT048 17/15 Q1017 NOSIG


Station Type Date Time Source
LEST Decoded METAR 2019/06/27 08:00 UTC NOAA

Santiago / Labacolla, Spain (LEST) 42-54N 008-26W 367M
Jun 27, 2019 - 04:00 AM EDT / 2019.06.27 0800 UTC
Wind: Variable at 1 MPH (1 KT):0
Visibility: greater than 7 mile(s):0
Sky conditions: partly cloudy
Temperature: 62 F (17 C)
Dew Point: 59 F (15 C)
Relative Humidity: 88%
Pressure (altimeter): 30.03 in. Hg (1017 hPa)
ob: LEST 270800Z VRB01KT 9999 FEW012 SCT048 17/15 Q1017 NOSIG
cycle: 8

Station Type Date Time Source
LEST TAF 2019/06/27 06:27 UTC NOAA

TAF LEST 270500Z 2706/2806 VRB04KT 9999 SCT021 TX22/2714Z TN13/2805Z PROB30
TEMPO 2706/2708 1500 BR PROB30
TEMPO 2706/2710 RA SHRA SCT030TCU
TEMPO 2710/2719 26010KT PROB30
TEMPO 2803/2806 1500 BR

Example: see airport list